Terminal Aerodrome Forecast
Issued by NWS Duluth, MN

Home | Current Version | Previous Version | Text Only | Print | Product List | Glossary On
Versions: 1 2 3 4 5 6 7 8 9 10 11 12 13 14 15 16 17 18 19 20 21 22 23 24 25 26 27 28 29 30 31 32 33 34
943
FTUS43 KDLH 221739
TAFDLH
TAF
KDLH 221739Z 2218/2318 19010KT P6SM SCT120 BKN250
     FM222000 16010KT P6SM BKN150
     FM230000 12008KT P6SM BKN150 WS020/19035KT
     FM230700 20008KT P6SM BKN200 WS020/21035KT
     FM231400 24007KT P6SM BKN110=

USA.gov is the U.S. government's official web portal to all federal, state and local government web resources and services.